sensor_id;sensor_type;location;lat;lon;timestamp;P1;durP1;ratioP1;P2;durP2;ratioP2
8580;SDS011;4328;48.622;9.230;2022-08-27T00:00:43;4.57;;;4.03;;
8580;SDS011;4328;48.622;9.230;2022-08-27T00:03:10;5.03;;;4.13;;
8580;SDS011;4328;48.622;9.230;2022-08-27T00:05:37;4.17;;;3.77;;
8580;SDS011;4328;48.622;9.230;2022-08-27T00:08:04;4.20;;;3.80;;
8580;SDS011;4328;48.622;9.230;2022-08-27T00:10:34;5.20;;;4.00;;
8580;SDS011;4328;48.622;9.230;2022-08-27T00:13:00;4.77;;;3.87;;
8580;SDS011;4328;48.622;9.230;2022-08-27T00:15:27;5.20;;;4.30;;
8580;SDS011;4328;48.622;9.230;2022-08-27T00:17:54;4.10;;;3.83;;
8580;SDS011;4328;48.622;9.230;2022-08-27T00:20:22;4.73;;;4.03;;
8580;SDS011;4328;48.622;9.230;2022-08-27T00:22:50;4.73;;;4.20;;
8580;SDS011;4328;48.622;9.230;2022-08-27T00:25:17;4.53;;;4.23;;
8580;SDS011;4328;48.622;9.230;2022-08-27T00:27:46;4.50;;;4.20;;
8580;SDS011;4328;48.622;9.230;2022-08-27T00:30:14;4.77;;;4.37;;
8580;SDS011;4328;48.622;9.230;2022-08-27T00:32:42;4.83;;;4.50;;
8580;SDS011;4328;48.622;9.230;2022-08-27T00:35:09;5.27;;;4.30;;
8580;SDS011;4328;48.622;9.230;2022-08-27T00:37:36;4.93;;;4.43;;
8580;SDS011;4328;48.622;9.230;2022-08-27T00:40:03;5.90;;;4.37;;
8580;SDS011;4328;48.622;9.230;2022-08-27T00:42:32;4.73;;;4.37;;
8580;SDS011;4328;48.622;9.230;2022-08-27T00:45:00;4.93;;;4.37;;
8580;SDS011;4328;48.622;9.230;2022-08-27T00:47:27;4.80;;;4.10;;
8580;SDS011;4328;48.622;9.230;2022-08-27T00:49:56;4.83;;;4.50;;
8580;SDS011;4328;48.622;9.230;2022-08-27T00:52:26;5.63;;;4.30;;
8580;SDS011;4328;48.622;9.230;2022-08-27T00:54:56;4.90;;;4.43;;
8580;SDS011;4328;48.622;9.230;2022-08-27T00:57:25;4.63;;;4.30;;
8580;SDS011;4328;48.622;9.230;2022-08-27T00:59:52;5.20;;;4.50;;
8580;SDS011;4328;48.622;9.230;2022-08-27T01:02:21;5.60;;;4.13;;
8580;SDS011;4328;48.622;9.230;2022-08-27T01:04:54;4.90;;;4.50;;
8580;SDS011;4328;48.622;9.230;2022-08-27T01:07:25;4.73;;;4.33;;
8580;SDS011;4328;48.622;9.230;2022-08-27T01:09:54;4.33;;;3.93;;
8580;SDS011;4328;48.622;9.230;2022-08-27T01:12:24;4.87;;;4.20;;
8580;SDS011;4328;48.622;9.230;2022-08-27T01:14:52;4.73;;;4.37;;
8580;SDS011;4328;48.622;9.230;2022-08-27T01:17:22;6.33;;;4.50;;
8580;SDS011;4328;48.622;9.230;2022-08-27T01:19:50;4.70;;;4.20;;
8580;SDS011;4328;48.622;9.230;2022-08-27T01:22:23;4.80;;;4.37;;
8580;SDS011;4328;48.622;9.230;2022-08-27T01:24:57;4.83;;;4.50;;
8580;SDS011;4328;48.622;9.230;2022-08-27T01:27:27;5.07;;;4.43;;
8580;SDS011;4328;48.622;9.230;2022-08-27T01:29:56;5.50;;;4.60;;
8580;SDS011;4328;48.622;9.230;2022-08-27T01:32:24;4.70;;;4.40;;
8580;SDS011;4328;48.622;9.230;2022-08-27T01:34:53;5.83;;;4.60;;
8580;SDS011;4328;48.622;9.230;2022-08-27T01:37:21;5.17;;;4.67;;
8580;SDS011;4328;48.622;9.230;2022-08-27T01:39:50;5.10;;;4.60;;
8580;SDS011;4328;48.622;9.230;2022-08-27T01:42:18;5.50;;;4.50;;
8580;SDS011;4328;48.622;9.230;2022-08-27T01:44:49;5.03;;;4.63;;
8580;SDS011;4328;48.622;9.230;2022-08-27T01:47:18;5.03;;;4.53;;
8580;SDS011;4328;48.622;9.230;2022-08-27T01:49:46;6.57;;;4.73;;
8580;SDS011;4328;48.622;9.230;2022-08-27T01:52:13;6.00;;;4.27;;
8580;SDS011;4328;48.622;9.230;2022-08-27T01:54:41;5.27;;;4.70;;
8580;SDS011;4328;48.622;9.230;2022-08-27T01:57:07;5.33;;;4.83;;
8580;SDS011;4328;48.622;9.230;2022-08-27T01:59:36;5.57;;;4.83;;
8580;SDS011;4328;48.622;9.230;2022-08-27T02:02:04;6.50;;;4.70;;
8580;SDS011;4328;48.622;9.230;2022-08-27T02:04:31;4.90;;;4.40;;
8580;SDS011;4328;48.622;9.230;2022-08-27T02:06:58;5.73;;;5.03;;
8580;SDS011;4328;48.622;9.230;2022-08-27T02:09:25;5.17;;;4.77;;
8580;SDS011;4328;48.622;9.230;2022-08-27T02:11:52;4.77;;;4.37;;
8580;SDS011;4328;48.622;9.230;2022-08-27T02:14:18;4.80;;;4.50;;
8580;SDS011;4328;48.622;9.230;2022-08-27T02:16:48;4.47;;;4.17;;
8580;SDS011;4328;48.622;9.230;2022-08-27T02:19:15;5.07;;;4.67;;
8580;SDS011;4328;48.622;9.230;2022-08-27T02:21:42;4.73;;;4.07;;
8580;SDS011;4328;48.622;9.230;2022-08-27T02:24:09;5.00;;;4.40;;
8580;SDS011;4328;48.622;9.230;2022-08-27T02:26:35;4.60;;;4.10;;
8580;SDS011;4328;48.622;9.230;2022-08-27T02:29:02;4.93;;;4.50;;
8580;SDS011;4328;48.622;9.230;2022-08-27T02:31:29;4.80;;;4.50;;
8580;SDS011;4328;48.622;9.230;2022-08-27T02:33:57;5.10;;;4.70;;
8580;SDS011;4328;48.622;9.230;2022-08-27T02:36:24;5.13;;;4.70;;
8580;SDS011;4328;48.622;9.230;2022-08-27T02:38:50;5.37;;;4.87;;
8580;SDS011;4328;48.622;9.230;2022-08-27T02:41:17;5.00;;;4.57;;
8580;SDS011;4328;48.622;9.230;2022-08-27T02:43:44;5.87;;;4.67;;
8580;SDS011;4328;48.622;9.230;2022-08-27T02:46:11;5.07;;;4.67;;
8580;SDS011;4328;48.622;9.230;2022-08-27T02:48:38;5.03;;;4.63;;
8580;SDS011;4328;48.622;9.230;2022-08-27T02:51:06;5.13;;;4.73;;
8580;SDS011;4328;48.622;9.230;2022-08-27T02:53:34;5.30;;;4.80;;
8580;SDS011;4328;48.622;9.230;2022-08-27T02:56:02;5.67;;;4.47;;
8580;SDS011;4328;48.622;9.230;2022-08-27T02:58:29;4.93;;;4.50;;
8580;SDS011;4328;48.622;9.230;2022-08-27T03:00:57;5.30;;;4.90;;
8580;SDS011;4328;48.622;9.230;2022-08-27T03:03:25;4.83;;;4.53;;
8580;SDS011;4328;48.622;9.230;2022-08-27T03:05:52;4.83;;;4.53;;
8580;SDS011;4328;48.622;9.230;2022-08-27T03:08:20;4.70;;;4.37;;
8580;SDS011;4328;48.622;9.230;2022-08-27T03:10:48;4.83;;;4.53;;
8580;SDS011;4328;48.622;9.230;2022-08-27T03:13:15;5.30;;;4.90;;
8580;SDS011;4328;48.622;9.230;2022-08-27T03:15:42;5.70;;;5.10;;
8580;SDS011;4328;48.622;9.230;2022-08-27T03:18:09;6.67;;;5.67;;
8580;SDS011;4328;48.622;9.230;2022-08-27T03:20:44;6.10;;;5.00;;
8580;SDS011;4328;48.622;9.230;2022-08-27T03:23:13;5.77;;;5.23;;
8580;SDS011;4328;48.622;9.230;2022-08-27T03:25:46;5.97;;;5.47;;
8580;SDS011;4328;48.622;9.230;2022-08-27T03:28:16;5.37;;;4.70;;
8580;SDS011;4328;48.622;9.230;2022-08-27T03:30:46;5.97;;;5.47;;
8580;SDS011;4328;48.622;9.230;2022-08-27T03:33:15;8.30;;;5.87;;
8580;SDS011;4328;48.622;9.230;2022-08-27T03:35:43;6.23;;;5.63;;
8580;SDS011;4328;48.622;9.230;2022-08-27T03:38:10;5.70;;;5.27;;
8580;SDS011;4328;48.622;9.230;2022-08-27T03:40:37;6.23;;;5.63;;
8580;SDS011;4328;48.622;9.230;2022-08-27T03:43:05;6.70;;;5.80;;
8580;SDS011;4328;48.622;9.230;2022-08-27T03:45:31;6.33;;;5.83;;
8580;SDS011;4328;48.622;9.230;2022-08-27T03:47:58;9.53;;;6.73;;
8580;SDS011;4328;48.622;9.230;2022-08-27T03:50:25;7.00;;;6.40;;
8580;SDS011;4328;48.622;9.230;2022-08-27T03:52:51;7.20;;;6.50;;
8580;SDS011;4328;48.622;9.230;2022-08-27T03:55:18;7.73;;;7.10;;
8580;SDS011;4328;48.622;9.230;2022-08-27T03:57:45;7.53;;;6.80;;
8580;SDS011;4328;48.622;9.230;2022-08-27T04:00:14;6.53;;;6.03;;
8580;SDS011;4328;48.622;9.230;2022-08-27T04:02:41;7.30;;;6.60;;
8580;SDS011;4328;48.622;9.230;2022-08-27T04:05:08;6.73;;;6.13;;
8580;SDS011;4328;48.622;9.230;2022-08-27T04:07:36;7.73;;;7.03;;
8580;SDS011;4328;48.622;9.230;2022-08-27T04:10:04;8.07;;;7.33;;
8580;SDS011;4328;48.622;9.230;2022-08-27T04:12:32;8.37;;;7.67;;
8580;SDS011;4328;48.622;9.230;2022-08-27T04:14:58;8.73;;;7.83;;
8580;SDS011;4328;48.622;9.230;2022-08-27T04:17:27;9.63;;;8.03;;
8580;SDS011;4328;48.622;9.230;2022-08-27T04:19:54;9.17;;;8.30;;
8580;SDS011;4328;48.622;9.230;2022-08-27T04:22:20;9.50;;;8.60;;
8580;SDS011;4328;48.622;9.230;2022-08-27T04:24:47;11.10;;;9.57;;
8580;SDS011;4328;48.622;9.230;2022-08-27T04:27:14;10.70;;;9.60;;
8580;SDS011;4328;48.622;9.230;2022-08-27T04:29:41;9.73;;;8.83;;
8580;SDS011;4328;48.622;9.230;2022-08-27T04:32:08;9.77;;;7.93;;
8580;SDS011;4328;48.622;9.230;2022-08-27T04:34:36;8.43;;;7.57;;
8580;SDS011;4328;48.622;9.230;2022-08-27T04:37:04;8.83;;;7.97;;
8580;SDS011;4328;48.622;9.230;2022-08-27T04:39:31;8.13;;;7.53;;
8580;SDS011;4328;48.622;9.230;2022-08-27T04:41:58;8.27;;;7.57;;
8580;SDS011;4328;48.622;9.230;2022-08-27T04:44:26;8.97;;;8.27;;
8580;SDS011;4328;48.622;9.230;2022-08-27T04:46:55;9.53;;;8.63;;
8580;SDS011;4328;48.622;9.230;2022-08-27T04:49:23;10.93;;;9.83;;
8580;SDS011;4328;48.622;9.230;2022-08-27T04:51:52;9.50;;;8.60;;
8580;SDS011;4328;48.622;9.230;2022-08-27T04:54:19;8.57;;;7.70;;
8580;SDS011;4328;48.622;9.230;2022-08-27T04:56:46;8.37;;;7.30;;
8580;SDS011;4328;48.622;9.230;2022-08-27T04:59:13;8.83;;;7.97;;
8580;SDS011;4328;48.622;9.230;2022-08-27T05:01:40;8.07;;;7.27;;
8580;SDS011;4328;48.622;9.230;2022-08-27T05:04:07;8.17;;;7.37;;
8580;SDS011;4328;48.622;9.230;2022-08-27T05:06:36;9.00;;;7.77;;
8580;SDS011;4328;48.622;9.230;2022-08-27T05:09:04;9.70;;;8.80;;
8580;SDS011;4328;48.622;9.230;2022-08-27T05:11:31;11.67;;;9.40;;
8580;SDS011;4328;48.622;9.230;2022-08-27T05:14:00;9.80;;;8.87;;
8580;SDS011;4328;48.622;9.230;2022-08-27T05:16:28;9.37;;;8.57;;
8580;SDS011;4328;48.622;9.230;2022-08-27T05:18:56;8.00;;;7.40;;
8580;SDS011;4328;48.622;9.230;2022-08-27T05:21:25;9.57;;;8.60;;
8580;SDS011;4328;48.622;9.230;2022-08-27T05:23:53;9.00;;;8.27;;
8580;SDS011;4328;48.622;9.230;2022-08-27T05:26:22;11.17;;;9.77;;
8580;SDS011;4328;48.622;9.230;2022-08-27T05:28:49;9.87;;;9.00;;
8580;SDS011;4328;48.622;9.230;2022-08-27T05:31:18;11.10;;;10.03;;
8580;SDS011;4328;48.622;9.230;2022-08-27T05:33:45;9.73;;;8.83;;
8580;SDS011;4328;48.622;9.230;2022-08-27T05:36:14;10.00;;;9.20;;
8580;SDS011;4328;48.622;9.230;2022-08-27T05:38:42;10.30;;;9.37;;
8580;SDS011;4328;48.622;9.230;2022-08-27T05:41:09;10.60;;;9.13;;
8580;SDS011;4328;48.622;9.230;2022-08-27T05:43:39;10.80;;;9.73;;
8580;SDS011;4328;48.622;9.230;2022-08-27T05:46:07;11.00;;;9.97;;
8580;SDS011;4328;48.622;9.230;2022-08-27T05:48:36;11.47;;;10.30;;
8580;SDS011;4328;48.622;9.230;2022-08-27T05:51:07;11.67;;;10.67;;
8580;SDS011;4328;48.622;9.230;2022-08-27T05:53:35;12.30;;;11.10;;
8580;SDS011;4328;48.622;9.230;2022-08-27T05:56:03;10.80;;;9.80;;
8580;SDS011;4328;48.622;9.230;2022-08-27T05:58:29;12.20;;;11.07;;
8580;SDS011;4328;48.622;9.230;2022-08-27T06:01:15;9.60;;;8.80;;
8580;SDS011;4328;48.622;9.230;2022-08-27T06:03:44;13.27;;;12.07;;
8580;SDS011;4328;48.622;9.230;2022-08-27T06:06:11;14.67;;;11.83;;
8580;SDS011;4328;48.622;9.230;2022-08-27T06:08:38;16.63;;;15.07;;
8580;SDS011;4328;48.622;9.230;2022-08-27T06:11:05;16.73;;;15.20;;
8580;SDS011;4328;48.622;9.230;2022-08-27T06:13:32;16.63;;;15.10;;
8580;SDS011;4328;48.622;9.230;2022-08-27T06:16:00;17.27;;;15.57;;
8580;SDS011;4328;48.622;9.230;2022-08-27T06:18:28;20.67;;;15.97;;
8580;SDS011;4328;48.622;9.230;2022-08-27T06:20:55;19.70;;;17.63;;
8580;SDS011;4328;48.622;9.230;2022-08-27T06:23:23;20.60;;;18.60;;
8580;SDS011;4328;48.622;9.230;2022-08-27T06:25:50;21.13;;;19.17;;
8580;SDS011;4328;48.622;9.230;2022-08-27T06:28:18;19.87;;;17.93;;
8580;SDS011;4328;48.622;9.230;2022-08-27T06:30:47;19.57;;;16.80;;
8580;SDS011;4328;48.622;9.230;2022-08-27T06:33:14;18.20;;;16.30;;
8580;SDS011;4328;48.622;9.230;2022-08-27T06:35:42;21.00;;;18.93;;
8580;SDS011;4328;48.622;9.230;2022-08-27T06:38:09;20.97;;;19.03;;
8580;SDS011;4328;48.622;9.230;2022-08-27T06:40:38;19.33;;;17.40;;
8580;SDS011;4328;48.622;9.230;2022-08-27T06:43:05;19.47;;;17.67;;
8580;SDS011;4328;48.622;9.230;2022-08-27T06:45:35;21.87;;;19.27;;
8580;SDS011;4328;48.622;9.230;2022-08-27T06:48:03;21.30;;;19.40;;
8580;SDS011;4328;48.622;9.230;2022-08-27T06:50:35;20.20;;;18.30;;
8580;SDS011;4328;48.622;9.230;2022-08-27T06:53:04;20.40;;;18.30;;
8580;SDS011;4328;48.622;9.230;2022-08-27T06:55:31;16.73;;;15.23;;
8580;SDS011;4328;48.622;9.230;2022-08-27T06:57:58;17.60;;;15.87;;
8580;SDS011;4328;48.622;9.230;2022-08-27T07:00:25;18.90;;;17.10;;
8580;SDS011;4328;48.622;9.230;2022-08-27T07:02:51;21.20;;;18.33;;
8580;SDS011;4328;48.622;9.230;2022-08-27T07:05:18;17.17;;;15.37;;
8580;SDS011;4328;48.622;9.230;2022-08-27T07:07:45;20.13;;;18.13;;
8580;SDS011;4328;48.622;9.230;2022-08-27T07:10:13;19.90;;;17.90;;
8580;SDS011;4328;48.622;9.230;2022-08-27T07:12:40;21.37;;;19.07;;
8580;SDS011;4328;48.622;9.230;2022-08-27T07:15:07;18.47;;;16.57;;
8580;SDS011;4328;48.622;9.230;2022-08-27T07:17:34;24.27;;;21.80;;
8580;SDS011;4328;48.622;9.230;2022-08-27T07:20:01;23.13;;;20.80;;
8580;SDS011;4328;48.622;9.230;2022-08-27T07:22:28;24.37;;;21.83;;
8580;SDS011;4328;48.622;9.230;2022-08-27T07:24:55;24.60;;;22.30;;
8580;SDS011;4328;48.622;9.230;2022-08-27T07:27:23;23.73;;;21.23;;
8580;SDS011;4328;48.622;9.230;2022-08-27T07:29:50;25.20;;;22.67;;
8580;SDS011;4328;48.622;9.230;2022-08-27T07:32:17;24.07;;;21.77;;
8580;SDS011;4328;48.622;9.230;2022-08-27T07:34:43;24.07;;;21.63;;
8580;SDS011;4328;48.622;9.230;2022-08-27T07:37:10;25.03;;;22.63;;
8580;SDS011;4328;48.622;9.230;2022-08-27T07:39:38;23.70;;;21.40;;
8580;SDS011;4328;48.622;9.230;2022-08-27T07:42:05;22.43;;;20.30;;
8580;SDS011;4328;48.622;9.230;2022-08-27T07:45:02;22.70;;;20.60;;
8580;SDS011;4328;48.622;9.230;2022-08-27T07:47:29;22.67;;;20.37;;
8580;SDS011;4328;48.622;9.230;2022-08-27T07:49:56;23.57;;;21.23;;
8580;SDS011;4328;48.622;9.230;2022-08-27T07:52:23;23.20;;;20.90;;
8580;SDS011;4328;48.622;9.230;2022-08-27T07:54:50;21.77;;;19.47;;
8580;SDS011;4328;48.622;9.230;2022-08-27T07:57:17;22.77;;;20.43;;
8580;SDS011;4328;48.622;9.230;2022-08-27T07:59:44;22.37;;;20.27;;
8580;SDS011;4328;48.622;9.230;2022-08-27T08:02:13;22.20;;;19.90;;
8580;SDS011;4328;48.622;9.230;2022-08-27T08:04:40;22.40;;;20.10;;
8580;SDS011;4328;48.622;9.230;2022-08-27T08:07:07;22.07;;;19.73;;
8580;SDS011;4328;48.622;9.230;2022-08-27T08:09:33;22.30;;;19.50;;
8580;SDS011;4328;48.622;9.230;2022-08-27T08:12:00;22.97;;;20.87;;
8580;SDS011;4328;48.622;9.230;2022-08-27T08:14:27;20.73;;;18.83;;
8580;SDS011;4328;48.622;9.230;2022-08-27T08:16:57;21.80;;;19.60;;
8580;SDS011;4328;48.622;9.230;2022-08-27T08:19:26;23.57;;;21.07;;
8580;SDS011;4328;48.622;9.230;2022-08-27T08:21:53;24.23;;;21.80;;
8580;SDS011;4328;48.622;9.230;2022-08-27T08:24:19;23.27;;;20.87;;
8580;SDS011;4328;48.622;9.230;2022-08-27T08:26:46;24.37;;;21.27;;
8580;SDS011;4328;48.622;9.230;2022-08-27T08:29:13;24.17;;;21.63;;
8580;SDS011;4328;48.622;9.230;2022-08-27T08:31:40;25.73;;;22.20;;
8580;SDS011;4328;48.622;9.230;2022-08-27T08:34:07;25.17;;;22.50;;
8580;SDS011;4328;48.622;9.230;2022-08-27T08:36:36;25.33;;;22.37;;
8580;SDS011;4328;48.622;9.230;2022-08-27T08:39:03;25.00;;;21.67;;
8580;SDS011;4328;48.622;9.230;2022-08-27T08:41:37;24.40;;;21.80;;
8580;SDS011;4328;48.622;9.230;2022-08-27T08:44:09;25.10;;;21.37;;
8580;SDS011;4328;48.622;9.230;2022-08-27T08:46:45;22.47;;;20.07;;
8580;SDS011;4328;48.622;9.230;2022-08-27T08:49:16;23.03;;;20.70;;
8580;SDS011;4328;48.622;9.230;2022-08-27T08:51:56;25.10;;;22.50;;
8580;SDS011;4328;48.622;9.230;2022-08-27T08:54:33;23.67;;;21.17;;
8580;SDS011;4328;48.622;9.230;2022-08-27T08:57:00;24.03;;;21.53;;
8580;SDS011;4328;48.622;9.230;2022-08-27T08:59:32;22.77;;;20.43;;
8580;SDS011;4328;48.622;9.230;2022-08-27T09:02:02;22.20;;;19.73;;
8580;SDS011;4328;48.622;9.230;2022-08-27T09:04:30;24.70;;;21.97;;
8580;SDS011;4328;48.622;9.230;2022-08-27T09:06:59;23.27;;;20.87;;
8580;SDS011;4328;48.622;9.230;2022-08-27T09:09:30;24.50;;;21.73;;
8580;SDS011;4328;48.622;9.230;2022-08-27T09:12:02;24.27;;;21.67;;
8580;SDS011;4328;48.622;9.230;2022-08-27T09:14:40;24.20;;;21.77;;
8580;SDS011;4328;48.622;9.230;2022-08-27T09:17:11;24.13;;;21.57;;
8580;SDS011;4328;48.622;9.230;2022-08-27T09:19:38;25.67;;;23.07;;
8580;SDS011;4328;48.622;9.230;2022-08-27T09:22:10;24.60;;;22.00;;
8580;SDS011;4328;48.622;9.230;2022-08-27T09:24:45;28.77;;;23.67;;
8580;SDS011;4328;48.622;9.230;2022-08-27T09:27:18;25.30;;;22.57;;
8580;SDS011;4328;48.622;9.230;2022-08-27T09:29:47;24.03;;;21.53;;
8580;SDS011;4328;48.622;9.230;2022-08-27T09:32:16;27.20;;;22.90;;
8580;SDS011;4328;48.622;9.230;2022-08-27T09:34:47;23.20;;;20.80;;
8580;SDS011;4328;48.622;9.230;2022-08-27T09:37:16;22.30;;;20.10;;
8580;SDS011;4328;48.622;9.230;2022-08-27T09:39:46;24.23;;;21.73;;
8580;SDS011;4328;48.622;9.230;2022-08-27T09:42:27;24.00;;;21.37;;
8580;SDS011;4328;48.622;9.230;2022-08-27T09:44:56;24.07;;;21.73;;
8580;SDS011;4328;48.622;9.230;2022-08-27T09:47:23;27.20;;;22.50;;
8580;SDS011;4328;48.622;9.230;2022-08-27T09:50:04;26.53;;;23.27;;
8580;SDS011;4328;48.622;9.230;2022-08-27T09:52:36;25.93;;;23.33;;
8580;SDS011;4328;48.622;9.230;2022-08-27T09:55:13;30.03;;;24.97;;
8580;SDS011;4328;48.622;9.230;2022-08-27T09:57:51;27.83;;;24.83;;
8580;SDS011;4328;48.622;9.230;2022-08-27T10:00:24;25.93;;;23.13;;
8580;SDS011;4328;48.622;9.230;2022-08-27T10:02:58;22.03;;;19.37;;
8580;SDS011;4328;48.622;9.230;2022-08-27T10:05:28;20.77;;;18.70;;
8580;SDS011;4328;48.622;9.230;2022-08-27T10:07:58;18.83;;;16.93;;
8580;SDS011;4328;48.622;9.230;2022-08-27T10:10:31;20.50;;;18.40;;
8580;SDS011;4328;48.622;9.230;2022-08-27T10:13:04;19.87;;;17.67;;
8580;SDS011;4328;48.622;9.230;2022-08-27T10:15:37;20.67;;;18.50;;
8580;SDS011;4328;48.622;9.230;2022-08-27T10:18:11;18.77;;;16.83;;
8580;SDS011;4328;48.622;9.230;2022-08-27T10:20:46;14.87;;;13.53;;
8580;SDS011;4328;48.622;9.230;2022-08-27T10:23:27;13.77;;;12.47;;
8580;SDS011;4328;48.622;9.230;2022-08-27T10:26:02;10.47;;;9.40;;
8580;SDS011;4328;48.622;9.230;2022-08-27T10:28:35;9.70;;;8.80;;
8580;SDS011;4328;48.622;9.230;2022-08-27T10:31:22;10.60;;;9.33;;
8580;SDS011;4328;48.622;9.230;2022-08-27T10:34:07;9.90;;;9.00;;
8580;SDS011;4328;48.622;9.230;2022-08-27T10:36:51;9.60;;;8.80;;
8580;SDS011;4328;48.622;9.230;2022-08-27T10:39:35;11.57;;;10.47;;
8580;SDS011;4328;48.622;9.230;2022-08-27T10:42:16;10.57;;;9.67;;
8580;SDS011;4328;48.622;9.230;2022-08-27T10:45:00;10.80;;;9.73;;
8580;SDS011;4328;48.622;9.230;2022-08-27T10:48:07;10.97;;;9.97;;
8580;SDS011;4328;48.622;9.230;2022-08-27T10:50:43;10.53;;;9.57;;
8580;SDS011;4328;48.622;9.230;2022-08-27T10:53:23;9.73;;;8.93;;
8580;SDS011;4328;48.622;9.230;2022-08-27T10:56:09;8.53;;;7.83;;
8580;SDS011;4328;48.622;9.230;2022-08-27T10:58:45;9.03;;;7.83;;
8580;SDS011;4328;48.622;9.230;2022-08-27T11:01:25;6.30;;;5.67;;
8580;SDS011;4328;48.622;9.230;2022-08-27T11:04:04;5.70;;;5.30;;
8580;SDS011;4328;48.622;9.230;2022-08-27T11:06:42;5.77;;;5.27;;
8580;SDS011;4328;48.622;9.230;2022-08-27T11:09:22;6.10;;;5.57;;
8580;SDS011;4328;48.622;9.230;2022-08-27T11:12:00;5.80;;;5.40;;
8580;SDS011;4328;48.622;9.230;2022-08-27T11:14:33;5.57;;;5.17;;
8580;SDS011;4328;48.622;9.230;2022-08-27T11:17:03;5.00;;;4.70;;
8580;SDS011;4328;48.622;9.230;2022-08-27T11:19:36;5.80;;;5.30;;
8580;SDS011;4328;48.622;9.230;2022-08-27T11:22:12;6.77;;;6.23;;
8580;SDS011;4328;48.622;9.230;2022-08-27T11:24:44;5.90;;;5.40;;
8580;SDS011;4328;48.622;9.230;2022-08-27T11:27:18;6.77;;;6.27;;
8580;SDS011;4328;48.622;9.230;2022-08-27T11:29:48;6.20;;;5.70;;
8580;SDS011;4328;48.622;9.230;2022-08-27T11:32:21;6.57;;;6.10;;
8580;SDS011;4328;48.622;9.230;2022-08-27T11:34:56;6.70;;;6.20;;
8580;SDS011;4328;48.622;9.230;2022-08-27T11:37:28;7.00;;;6.40;;
8580;SDS011;4328;48.622;9.230;2022-08-27T11:40:28;7.20;;;6.60;;
8580;SDS011;4328;48.622;9.230;2022-08-27T11:43:06;7.20;;;6.70;;
8580;SDS011;4328;48.622;9.230;2022-08-27T11:45:38;7.40;;;6.80;;
8580;SDS011;4328;48.622;9.230;2022-08-27T11:48:21;8.00;;;7.30;;
8580;SDS011;4328;48.622;9.230;2022-08-27T11:50:53;8.73;;;7.90;;
8580;SDS011;4328;48.622;9.230;2022-08-27T11:53:23;8.20;;;7.40;;
8580;SDS011;4328;48.622;9.230;2022-08-27T11:55:53;9.17;;;8.47;;
8580;SDS011;4328;48.622;9.230;2022-08-27T11:58:26;8.63;;;8.03;;
8580;SDS011;4328;48.622;9.230;2022-08-27T12:00:55;9.67;;;8.77;;
8580;SDS011;4328;48.622;9.230;2022-08-27T12:03:23;9.33;;;8.53;;
8580;SDS011;4328;48.622;9.230;2022-08-27T12:08:48;10.43;;;9.47;;
8580;SDS011;4328;48.622;9.230;2022-08-27T12:11:29;10.50;;;9.60;;
8580;SDS011;4328;48.622;9.230;2022-08-27T12:14:10;10.47;;;9.60;;
8580;SDS011;4328;48.622;9.230;2022-08-27T12:16:45;10.97;;;10.07;;
8580;SDS011;4328;48.622;9.230;2022-08-27T12:19:30;11.70;;;10.70;;
8580;SDS011;4328;48.622;9.230;2022-08-27T12:22:11;12.60;;;11.50;;
8580;SDS011;4328;48.622;9.230;2022-08-27T12:24:49;12.97;;;11.73;;
8580;SDS011;4328;48.622;9.230;2022-08-27T12:27:26;13.03;;;11.83;;
8580;SDS011;4328;48.622;9.230;2022-08-27T12:30:00;13.43;;;12.33;;
8580;SDS011;4328;48.622;9.230;2022-08-27T12:32:31;13.17;;;12.00;;
8580;SDS011;4328;48.622;9.230;2022-08-27T12:35:04;12.87;;;11.87;;
8580;SDS011;4328;48.622;9.230;2022-08-27T12:37:36;15.07;;;13.67;;
8580;SDS011;4328;48.622;9.230;2022-08-27T12:40:06;13.00;;;11.90;;
8580;SDS011;4328;48.622;9.230;2022-08-27T12:42:40;13.00;;;11.83;;
8580;SDS011;4328;48.622;9.230;2022-08-27T12:45:08;13.60;;;12.30;;
8580;SDS011;4328;48.622;9.230;2022-08-27T12:47:44;12.83;;;11.67;;
8580;SDS011;4328;48.622;9.230;2022-08-27T12:50:11;13.33;;;12.20;;
8580;SDS011;4328;48.622;9.230;2022-08-27T12:52:45;13.73;;;12.43;;
8580;SDS011;4328;48.622;9.230;2022-08-27T12:55:30;14.37;;;13.07;;
8580;SDS011;4328;48.622;9.230;2022-08-27T12:58:07;13.60;;;12.30;;
8580;SDS011;4328;48.622;9.230;2022-08-27T13:00:46;13.87;;;12.33;;
8580;SDS011;4328;48.622;9.230;2022-08-27T13:03:25;15.20;;;13.70;;
8580;SDS011;4328;48.622;9.230;2022-08-27T13:05:58;15.43;;;14.03;;
8580;SDS011;4328;48.622;9.230;2022-08-27T13:08:26;11.00;;;10.00;;
8580;SDS011;4328;48.622;9.230;2022-08-27T13:10:55;9.23;;;8.40;;
8580;SDS011;4328;48.622;9.230;2022-08-27T13:13:32;7.10;;;6.50;;
8580;SDS011;4328;48.622;9.230;2022-08-27T13:16:00;6.40;;;5.90;;
8580;SDS011;4328;48.622;9.230;2022-08-27T13:18:28;6.73;;;6.23;;
8580;SDS011;4328;48.622;9.230;2022-08-27T13:20:59;7.00;;;6.30;;
8580;SDS011;4328;48.622;9.230;2022-08-27T13:23:27;6.30;;;5.67;;
8580;SDS011;4328;48.622;9.230;2022-08-27T13:25:55;6.17;;;5.67;;
8580;SDS011;4328;48.622;9.230;2022-08-27T13:28:27;5.70;;;5.03;;
8580;SDS011;4328;48.622;9.230;2022-08-27T13:30:55;5.93;;;5.47;;
8580;SDS011;4328;48.622;9.230;2022-08-27T13:33:26;6.07;;;5.50;;
8580;SDS011;4328;48.622;9.230;2022-08-27T13:35:55;5.40;;;5.00;;
8580;SDS011;4328;48.622;9.230;2022-08-27T13:38:22;4.83;;;4.43;;
8580;SDS011;4328;48.622;9.230;2022-08-27T13:40:52;5.63;;;5.13;;
8580;SDS011;4328;48.622;9.230;2022-08-27T13:43:25;5.23;;;4.90;;
8580;SDS011;4328;48.622;9.230;2022-08-27T13:45:56;5.43;;;5.03;;
8580;SDS011;4328;48.622;9.230;2022-08-27T13:48:27;4.73;;;4.43;;
8580;SDS011;4328;48.622;9.230;2022-08-27T13:50:55;4.80;;;4.50;;
8580;SDS011;4328;48.622;9.230;2022-08-27T13:53:23;4.83;;;4.33;;
8580;SDS011;4328;48.622;9.230;2022-08-27T13:56:09;5.07;;;4.57;;
8580;SDS011;4328;48.622;9.230;2022-08-27T13:58:36;4.80;;;4.37;;
8580;SDS011;4328;48.622;9.230;2022-08-27T14:01:07;4.80;;;4.40;;
8580;SDS011;4328;48.622;9.230;2022-08-27T14:03:44;4.77;;;4.37;;
8580;SDS011;4328;48.622;9.230;2022-08-27T14:06:20;4.83;;;4.37;;
8580;SDS011;4328;48.622;9.230;2022-08-27T14:08:48;5.20;;;4.80;;
8580;SDS011;4328;48.622;9.230;2022-08-27T14:11:15;5.10;;;4.60;;
8580;SDS011;4328;48.622;9.230;2022-08-27T14:13:49;4.70;;;4.40;;
8580;SDS011;4328;48.622;9.230;2022-08-27T14:16:21;5.57;;;5.00;;
8580;SDS011;4328;48.622;9.230;2022-08-27T14:18:54;5.07;;;4.63;;
8580;SDS011;4328;48.622;9.230;2022-08-27T14:21:27;5.53;;;4.90;;
8580;SDS011;4328;48.622;9.230;2022-08-27T14:23:54;5.53;;;5.10;;
8580;SDS011;4328;48.622;9.230;2022-08-27T14:26:21;5.17;;;4.87;;
8580;SDS011;4328;48.622;9.230;2022-08-27T14:28:48;6.07;;;5.53;;
8580;SDS011;4328;48.622;9.230;2022-08-27T14:31:14;5.60;;;5.00;;
8580;SDS011;4328;48.622;9.230;2022-08-27T14:33:42;5.47;;;5.07;;
8580;SDS011;4328;48.622;9.230;2022-08-27T14:36:13;5.57;;;5.20;;
8580;SDS011;4328;48.622;9.230;2022-08-27T14:38:42;6.30;;;5.60;;
8580;SDS011;4328;48.622;9.230;2022-08-27T14:41:11;5.83;;;5.30;;
8580;SDS011;4328;48.622;9.230;2022-08-27T14:43:38;5.87;;;5.33;;
8580;SDS011;4328;48.622;9.230;2022-08-27T14:46:05;5.27;;;4.87;;
8580;SDS011;4328;48.622;9.230;2022-08-27T14:48:33;5.67;;;5.17;;
8580;SDS011;4328;48.622;9.230;2022-08-27T14:51:03;6.40;;;5.80;;
8580;SDS011;4328;48.622;9.230;2022-08-27T14:53:36;6.00;;;5.50;;
8580;SDS011;4328;48.622;9.230;2022-08-27T14:56:03;5.50;;;5.10;;
8580;SDS011;4328;48.622;9.230;2022-08-27T14:58:29;5.40;;;5.00;;
8580;SDS011;4328;48.622;9.230;2022-08-27T15:00:56;5.80;;;5.30;;
8580;SDS011;4328;48.622;9.230;2022-08-27T15:03:23;7.97;;;5.90;;
8580;SDS011;4328;48.622;9.230;2022-08-27T15:05:51;5.73;;;5.23;;
8580;SDS011;4328;48.622;9.230;2022-08-27T15:08:20;5.90;;;5.50;;
8580;SDS011;4328;48.622;9.230;2022-08-27T15:10:48;5.63;;;5.23;;
8580;SDS011;4328;48.622;9.230;2022-08-27T15:13:15;5.57;;;5.17;;
8580;SDS011;4328;48.622;9.230;2022-08-27T15:15:42;5.83;;;5.33;;
8580;SDS011;4328;48.622;9.230;2022-08-27T15:18:09;5.97;;;5.47;;
8580;SDS011;4328;48.622;9.230;2022-08-27T15:20:36;5.40;;;5.00;;
8580;SDS011;4328;48.622;9.230;2022-08-27T15:23:04;6.00;;;5.60;;
8580;SDS011;4328;48.622;9.230;2022-08-27T15:25:31;5.80;;;5.30;;